createdAt,value
2022-08-05T00:02:07.306Z,3.17
2022-08-05T00:04:37.214Z,3.30
2022-08-05T00:07:26.920Z,3.22
2022-08-05T00:09:56.462Z,3.45
2022-08-05T00:12:28.699Z,3.10
2022-08-05T00:14:58.317Z,3.20
2022-08-05T00:17:27.946Z,3.08
2022-08-05T00:20:01.986Z,3.00
2022-08-05T00:22:32.710Z,3.15
2022-08-05T00:25:02.338Z,3.20
2022-08-05T00:27:42.882Z,3.05
2022-08-05T00:30:13.589Z,3.20
2022-08-05T00:32:43.237Z,3.20
2022-08-05T00:35:13.019Z,2.90
2022-08-05T00:37:52.741Z,3.00
2022-08-05T00:40:27.206Z,3.22
2022-08-05T00:43:07.587Z,3.15
2022-08-05T00:45:38.412Z,3.05
2022-08-05T00:48:10.282Z,3.05
2022-08-05T00:50:41.331Z,3.15
2022-08-05T00:54:01.110Z,3.25
2022-08-05T00:56:04.040Z,3.40
2022-08-05T00:58:36.336Z,3.17
2022-08-05T01:01:08.674Z,3.70
2022-08-05T01:03:38.894Z,3.40
2022-08-05T01:06:11.190Z,3.58
2022-08-05T01:08:44.846Z,3.30
2022-08-05T01:11:22.380Z,3.10
2022-08-05T01:14:08.719Z,3.30
2022-08-05T01:19:30.400Z,3.35
2022-08-05T01:22:28.960Z,3.75
2022-08-05T01:25:40.704Z,3.70
2022-08-05T01:28:29.932Z,3.75
2022-08-05T01:31:04.317Z,3.58
2022-08-05T01:33:37.896Z,3.90
2022-08-05T01:36:16.296Z,4.20
2022-08-05T01:38:48.460Z,4.20
2022-08-05T01:41:21.882Z,4.35
2022-08-05T01:43:54.445Z,3.63
2022-08-05T01:46:43.161Z,4.13
2022-08-05T01:49:22.798Z,4.13
2022-08-05T01:51:53.666Z,3.88
2022-08-05T01:54:25.707Z,4.45
2022-08-05T01:58:10.896Z,4.55
2022-08-05T01:59:51.382Z,4.00
2022-08-05T02:02:26.110Z,4.25
2022-08-05T02:05:01.416Z,4.00
2022-08-05T02:07:33.744Z,4.28
2022-08-05T02:10:04.269Z,4.20
2022-08-05T02:12:43.164Z,4.38
2022-08-05T02:15:19.622Z,3.80
2022-08-05T02:18:32.359Z,4.28
2022-08-05T02:20:47.308Z,4.40
2022-08-05T02:23:22.396Z,4.20
2022-08-05T02:25:52.805Z,4.43
2022-08-05T02:28:29.168Z,5.68
2022-08-05T02:31:06.049Z,4.70
2022-08-05T02:33:42.081Z,4.82
2022-08-05T02:36:16.037Z,5.22
2022-08-05T02:38:53.646Z,5.35
2022-08-05T02:41:28.596Z,6.10
2022-08-05T02:44:11.200Z,6.07
2022-08-05T02:46:58.570Z,6.10
2022-08-05T02:49:37.162Z,6.20
2022-08-05T02:52:11.515Z,6.78
2022-08-05T02:58:11.929Z,7.25
2022-08-05T03:00:12.558Z,7.13
2022-08-05T03:02:47.170Z,7.38
2022-08-05T03:05:21.839Z,8.07
2022-08-05T03:08:09.487Z,8.40
2022-08-05T03:10:39.393Z,8.35
2022-08-05T03:13:16.833Z,9.60
2022-08-05T03:15:47.307Z,10.63
2022-08-05T03:18:30.115Z,12.32
2022-08-05T03:21:00.383Z,16.13
2022-08-05T03:23:30.140Z,17.52
2022-08-05T03:26:04.449Z,17.88
2022-08-05T03:28:50.379Z,18.05
2022-08-05T03:31:55.607Z,18.48
2022-08-05T03:34:13.888Z,20.13
2022-08-05T03:36:43.792Z,16.95
2022-08-05T03:39:20.201Z,18.17
2022-08-05T03:41:57.217Z,17.60
2022-08-05T03:44:29.121Z,17.90
2022-08-05T03:46:58.793Z,19.13
2022-08-05T03:49:52.027Z,19.50
2022-08-05T03:52:49.352Z,20.25
2022-08-05T03:56:01.438Z,18.48
2022-08-05T03:58:08.354Z,19.35
2022-08-05T04:00:41.897Z,19.88
2022-08-05T04:03:15.040Z,19.17
2022-08-05T04:06:01.052Z,18.58
2022-08-05T04:08:36.216Z,18.65
2022-08-05T04:11:08.644Z,18.70
2022-08-05T04:13:49.676Z,20.50
2022-08-05T04:16:25.328Z,19.55
2022-08-05T04:19:02.742Z,19.38
2022-08-05T04:22:10.007Z,19.17
2022-08-05T04:24:32.686Z,19.15
2022-08-05T04:27:02.302Z,19.25
2022-08-05T04:29:32.183Z,20.00
2022-08-05T04:32:02.427Z,19.90
2022-08-05T04:34:34.552Z,18.63
2022-08-05T04:37:08.459Z,19.65
2022-08-05T04:39:39.171Z,20.38
2022-08-05T04:42:10.769Z,19.77
2022-08-05T04:44:41.681Z,20.50
2022-08-05T04:47:13.651Z,20.40
2022-08-05T04:50:02.026Z,21.23
2022-08-05T04:52:38.985Z,20.90
2022-08-05T04:55:14.442Z,22.30
2022-08-05T04:57:47.776Z,23.20
2022-08-05T05:00:23.519Z,22.25
2022-08-05T05:02:53.760Z,23.10
2022-08-05T05:05:28.682Z,22.70
2022-08-05T05:08:03.528Z,21.40
2022-08-05T05:10:34.621Z,22.77
2022-08-05T05:13:05.068Z,21.88
2022-08-05T05:15:59.044Z,21.08
2022-08-05T05:18:31.601Z,22.20
2022-08-05T05:21:05.532Z,18.85
2022-08-05T05:24:02.111Z,20.15
2022-08-05T05:26:28.778Z,19.10
2022-08-05T05:29:14.411Z,20.70
2022-08-05T05:31:46.266Z,17.67
2022-08-05T05:34:21.177Z,19.27
2022-08-05T05:36:55.476Z,18.48
2022-08-05T05:39:31.683Z,18.45
2022-08-05T05:42:04.768Z,18.75
2022-08-05T05:44:36.647Z,19.00
2022-08-05T05:47:21.236Z,17.33
2022-08-05T05:49:56.639Z,19.83
2022-08-05T05:52:33.192Z,19.85
2022-08-05T05:55:13.551Z,20.77
2022-08-05T05:57:53.016Z,17.90
2022-08-05T06:00:27.604Z,18.90
2022-08-05T06:03:01.420Z,22.45
2022-08-05T06:05:31.911Z,18.77
2022-08-05T06:08:02.290Z,15.98
2022-08-05T06:10:37.560Z,20.70
2022-08-05T06:13:18.863Z,18.75
2022-08-05T06:16:29.280Z,21.02
2022-08-05T06:18:39.354Z,20.02
2022-08-05T06:21:18.563Z,21.88
2022-08-05T06:23:49.789Z,21.17
2022-08-05T06:26:24.216Z,20.70
2022-08-05T06:28:54.712Z,21.83
2022-08-05T06:31:32.168Z,21.30
2022-08-05T06:34:07.634Z,21.17
2022-08-05T06:36:57.413Z,22.15
2022-08-05T06:39:28.584Z,22.23
2022-08-05T06:42:04.643Z,22.15
2022-08-05T06:44:34.793Z,22.75
2022-08-05T06:47:04.391Z,22.73
2022-08-05T06:50:00.863Z,22.52
2022-08-05T06:52:36.609Z,21.20
2022-08-05T06:55:08.502Z,21.70
2022-08-05T06:58:02.768Z,22.13
2022-08-05T07:00:32.843Z,17.60
2022-08-05T07:03:03.255Z,21.58
2022-08-05T07:05:41.295Z,21.65
2022-08-05T07:08:11.279Z,18.85
2022-08-05T07:10:52.899Z,19.73
2022-08-05T07:13:57.568Z,17.55
2022-08-05T07:17:58.678Z,19.05
2022-08-05T07:20:16.453Z,19.63
2022-08-05T07:22:28.116Z,21.95
2022-08-05T07:25:23.257Z,16.08
2022-08-05T07:27:58.373Z,19.38
2022-08-05T07:30:39.075Z,22.15
2022-08-05T07:33:16.007Z,23.08
2022-08-05T07:36:02.249Z,22.35
2022-08-05T07:38:43.412Z,24.52
2022-08-05T07:42:09.232Z,26.48
2022-08-05T07:44:18.660Z,30.53
2022-08-05T07:46:51.851Z,31.55
2022-08-05T07:49:22.011Z,31.42
2022-08-05T07:51:54.868Z,30.75
2022-08-05T07:54:30.233Z,31.77
2022-08-05T07:57:41.334Z,32.17
2022-08-05T07:59:51.144Z,29.73
2022-08-05T08:02:30.912Z,28.25
2022-08-05T08:05:01.512Z,29.52
2022-08-05T08:07:39.660Z,29.42
2022-08-05T08:10:21.312Z,26.65
2022-08-05T08:12:51.082Z,25.90
2022-08-05T08:16:33.387Z,26.60
2022-08-05T08:18:14.397Z,25.85
2022-08-05T08:24:02.398Z,25.30
2022-08-05T08:26:26.522Z,24.60
2022-08-05T08:29:02.317Z,24.92
2022-08-05T08:31:48.601Z,24.52
2022-08-05T08:34:30.808Z,24.58
2022-08-05T08:37:03.220Z,22.95
2022-08-05T08:39:37.579Z,21.88
2022-08-05T08:42:27.582Z,18.90
2022-08-05T08:45:23.520Z,17.48
2022-08-05T08:48:13.054Z,18.08
2022-08-05T08:51:22.493Z,17.67
2022-08-05T08:56:06.584Z,14.98
2022-08-05T08:58:37.491Z,13.68
2022-08-05T09:01:17.144Z,12.95
2022-08-05T09:03:54.373Z,13.23
2022-08-05T09:06:32.171Z,12.20
2022-08-05T09:09:07.384Z,11.15
2022-08-05T09:11:51.671Z,12.00
2022-08-05T09:14:56.576Z,11.57
2022-08-05T09:17:15.915Z,11.82
2022-08-05T09:20:08.482Z,11.93
2022-08-05T09:23:18.697Z,11.95
2022-08-05T09:26:00.898Z,11.23
2022-08-05T09:28:34.076Z,12.10
2022-08-05T09:31:43.687Z,10.50
2022-08-05T09:33:59.037Z,10.23
2022-08-05T09:36:45.952Z,10.88
2022-08-05T09:39:41.961Z,9.10
2022-08-05T09:42:23.391Z,8.13
2022-08-05T09:45:17.895Z,8.02
2022-08-05T09:47:56.237Z,7.65
2022-08-05T09:50:44.599Z,7.30
2022-08-05T09:53:25.727Z,6.95
2022-08-05T09:56:03.917Z,6.28
2022-08-05T09:58:35.419Z,7.75
2022-08-05T10:01:13.744Z,6.82
2022-08-05T10:04:00.312Z,7.53
2022-08-05T10:06:30.918Z,7.05
2022-08-05T10:09:27.286Z,7.53
2022-08-05T10:12:18.891Z,6.78
2022-08-05T10:15:20.634Z,6.35
2022-08-05T10:18:09.124Z,5.97
2022-08-05T10:20:41.739Z,5.63
2022-08-05T10:23:34.169Z,6.37
2022-08-05T10:26:04.937Z,7.07
2022-08-05T10:28:39.624Z,6.47
2022-08-05T10:32:50.668Z,6.35
2022-08-05T10:34:01.511Z,5.93
2022-08-05T10:36:32.272Z,5.50
2022-08-05T10:39:10.400Z,4.45
2022-08-05T10:41:50.421Z,5.30
2022-08-05T10:44:23.639Z,4.72
2022-08-05T10:46:56.459Z,5.13
2022-08-05T10:49:33.400Z,6.03
2022-08-05T10:52:46.960Z,5.80
2022-08-05T10:55:19.310Z,5.60
2022-08-05T10:57:51.376Z,4.32
2022-08-05T11:00:26.393Z,4.43
2022-08-05T11:03:25.285Z,4.78
2022-08-05T11:06:16.210Z,4.03
2022-08-05T11:09:16.797Z,4.45
2022-08-05T11:11:53.378Z,3.75
2022-08-05T11:14:57.638Z,4.28
2022-08-05T11:18:00.520Z,5.30
2022-08-05T11:23:33.321Z,4.55
2022-08-05T11:26:32.134Z,4.65
2022-08-05T11:29:06.906Z,4.15
2022-08-05T11:31:54.345Z,4.97
2022-08-05T11:34:51.393Z,5.97
2022-08-05T11:38:28.730Z,5.57
2022-08-05T11:41:03.504Z,5.65
2022-08-05T11:44:04.462Z,5.95
2022-08-05T11:46:36.414Z,5.10
2022-08-05T11:49:10.040Z,4.72
2022-08-05T11:51:49.137Z,4.40
2022-08-05T11:54:33.633Z,4.45
2022-08-05T11:57:07.971Z,4.75
2022-08-05T11:59:50.205Z,4.47
2022-08-05T12:02:29.726Z,4.35
2022-08-05T12:05:07.637Z,4.43
2022-08-05T12:08:09.628Z,4.20
2022-08-05T12:10:45.000Z,4.35
2022-08-05T12:13:28.042Z,4.43
2022-08-05T12:16:14.775Z,4.05
2022-08-05T12:18:49.305Z,4.10
2022-08-05T12:21:24.755Z,4.20
2022-08-05T12:26:38.697Z,4.47
2022-08-05T12:29:15.898Z,4.03
2022-08-05T12:31:53.189Z,4.15
2022-08-05T12:34:28.277Z,3.90
2022-08-05T12:36:59.734Z,3.95
2022-08-05T12:39:37.083Z,3.47
2022-08-05T12:42:14.621Z,3.50
2022-08-05T12:44:45.055Z,2.97
2022-08-05T12:47:17.230Z,3.20
2022-08-05T12:50:03.725Z,3.20
2022-08-05T12:52:39.154Z,3.33
2022-08-05T12:55:26.154Z,3.03
2022-08-05T12:58:50.216Z,3.63
2022-08-05T13:02:02.290Z,3.00
2022-08-05T13:03:42.145Z,3.88
2022-08-05T13:06:16.481Z,3.50
2022-08-05T13:11:25.316Z,3.40
2022-08-05T13:14:24.550Z,3.55
2022-08-05T13:17:08.977Z,3.53
2022-08-05T13:19:51.125Z,3.40
2022-08-05T13:22:27.943Z,3.20
2022-08-05T13:25:05.170Z,3.50
2022-08-05T13:27:39.927Z,3.40
2022-08-05T13:30:34.757Z,3.55
2022-08-05T13:33:02.233Z,3.03
2022-08-05T13:35:47.176Z,3.40
2022-08-05T13:38:30.552Z,3.40
2022-08-05T13:41:01.238Z,3.50
2022-08-05T13:43:43.387Z,3.20
2022-08-05T13:46:14.175Z,3.30
2022-08-05T13:48:57.741Z,3.00
2022-08-05T13:51:36.557Z,2.90
2022-08-05T13:54:12.247Z,3.28
2022-08-05T13:56:45.163Z,3.00
2022-08-05T13:59:27.433Z,3.40
2022-08-05T14:02:01.470Z,3.40
2022-08-05T14:04:49.637Z,3.10
2022-08-05T14:07:25.873Z,3.05
2022-08-05T14:10:12.896Z,3.22
2022-08-05T14:12:48.626Z,3.47
2022-08-05T14:16:08.157Z,3.00
2022-08-05T14:18:15.025Z,3.33
2022-08-05T14:20:48.828Z,3.45
2022-08-05T14:23:24.537Z,3.50
2022-08-05T14:25:59.116Z,3.50
2022-08-05T14:28:29.703Z,3.53
2022-08-05T14:31:02.883Z,3.63
2022-08-05T14:33:59.593Z,3.50
2022-08-05T14:36:23.533Z,3.15
2022-08-05T14:38:54.177Z,3.22
2022-08-05T14:41:23.964Z,3.30
2022-08-05T14:44:02.168Z,3.10
2022-08-05T14:46:41.704Z,3.10
2022-08-05T14:49:12.018Z,3.08
2022-08-05T14:51:43.236Z,3.00
2022-08-05T14:54:28.141Z,2.72
2022-08-05T14:57:00.305Z,2.50
2022-08-05T14:59:35.616Z,2.70
2022-08-05T15:02:14.992Z,2.45
2022-08-05T15:04:47.776Z,2.50
2022-08-05T15:08:08.704Z,2.85
2022-08-05T15:10:09.932Z,3.15
2022-08-05T15:13:00.343Z,2.40
2022-08-05T15:15:54.334Z,2.20
2022-08-05T15:18:22.028Z,2.20
2022-08-05T15:20:51.639Z,2.05
2022-08-05T15:23:21.485Z,2.08
2022-08-05T15:25:55.872Z,2.30
2022-08-05T15:28:28.171Z,2.58
2022-08-05T15:30:59.363Z,2.05
2022-08-05T15:34:04.848Z,2.25
2022-08-05T15:36:25.715Z,2.50
2022-08-05T15:40:42.699Z,2.22
2022-08-05T15:41:57.311Z,1.90
2022-08-05T15:44:28.331Z,2.03
2022-08-05T15:47:00.442Z,2.17
2022-08-05T15:49:48.105Z,2.05
2022-08-05T15:52:51.691Z,1.98
2022-08-05T15:55:15.605Z,1.80
2022-08-05T15:57:49.079Z,1.83
2022-08-05T16:00:26.518Z,1.67
2022-08-05T16:03:02.557Z,1.70
2022-08-05T16:05:35.267Z,1.52
2022-08-05T16:08:08.922Z,1.42
2022-08-05T16:10:39.042Z,1.45
2022-08-05T16:13:11.072Z,1.20
2022-08-05T16:15:40.795Z,1.40
2022-08-05T16:18:12.344Z,1.17
2022-08-05T16:20:46.767Z,1.35
2022-08-05T16:23:16.374Z,1.13
2022-08-05T16:25:46.167Z,1.00
2022-08-05T16:28:18.084Z,1.33
2022-08-05T16:30:47.686Z,1.23
2022-08-05T16:33:20.007Z,1.20
2022-08-05T16:35:53.054Z,1.20
2022-08-05T16:38:27.996Z,0.98
2022-08-05T16:41:00.122Z,1.10
2022-08-05T16:43:33.109Z,1.10
2022-08-05T16:46:23.961Z,1.13
2022-08-05T16:48:55.680Z,0.85
2022-08-05T16:51:31.061Z,1.17
2022-08-05T16:54:16.246Z,1.38
2022-08-05T16:56:47.122Z,1.05
2022-08-05T16:59:22.312Z,1.02
2022-08-05T17:01:54.759Z,0.90
2022-08-05T17:04:28.219Z,1.20
2022-08-05T17:07:03.596Z,1.10
2022-08-05T17:09:59.429Z,1.20
2022-08-05T17:12:51.486Z,1.23
2022-08-05T17:15:19.585Z,0.88
2022-08-05T17:18:02.234Z,1.40
2022-08-05T17:20:32.047Z,1.13
2022-08-05T17:23:04.197Z,1.25
2022-08-05T17:25:40.387Z,1.23
2022-08-05T17:28:11.034Z,0.80
2022-08-05T17:30:52.162Z,1.00
2022-08-05T17:33:23.217Z,1.50
2022-08-05T17:36:09.076Z,1.27
2022-08-05T17:38:42.435Z,1.13
2022-08-05T17:42:17.351Z,1.10
2022-08-05T17:44:02.164Z,1.25
2022-08-05T17:46:32.936Z,1.40
2022-08-05T17:49:02.493Z,1.15
2022-08-05T17:51:40.307Z,1.00
2022-08-05T17:54:12.959Z,1.40
2022-08-05T17:56:44.725Z,1.10
2022-08-05T17:59:22.581Z,1.30
2022-08-05T18:01:52.351Z,1.15
2022-08-05T18:04:27.836Z,1.27
2022-08-05T18:07:00.546Z,1.27
2022-08-05T18:09:59.848Z,1.60
2022-08-05T18:12:24.496Z,1.40
2022-08-05T18:14:54.758Z,1.15
2022-08-05T18:17:59.270Z,1.17
2022-08-05T18:20:15.441Z,1.20
2022-08-05T18:22:53.831Z,1.40
2022-08-05T18:25:33.163Z,1.35
2022-08-05T18:28:05.018Z,1.17
2022-08-05T18:30:35.709Z,1.35
2022-08-05T18:33:13.522Z,1.25
2022-08-05T18:36:00.583Z,1.38
2022-08-05T18:38:33.385Z,1.45
2022-08-05T18:41:59.548Z,1.25
2022-08-05T18:43:57.023Z,1.27
2022-08-05T18:46:35.410Z,1.27
2022-08-05T18:49:30.385Z,1.20
2022-08-05T18:52:12.862Z,1.20
2022-08-05T18:54:45.989Z,1.40
2022-08-05T18:57:19.740Z,1.35
2022-08-05T19:00:01.654Z,1.40
2022-08-05T19:02:33.000Z,1.42
2022-08-05T19:06:06.159Z,1.10
2022-08-05T19:07:53.037Z,0.90
2022-08-05T19:10:27.868Z,0.90
2022-08-05T19:13:00.784Z,1.13
2022-08-05T19:18:22.670Z,1.05
2022-08-05T19:20:53.890Z,1.30
2022-08-05T19:24:07.299Z,1.25
2022-08-05T19:26:13.911Z,1.20
2022-08-05T19:28:46.879Z,1.20
2022-08-05T19:33:55.987Z,1.10
2022-08-05T19:36:26.773Z,1.48
2022-08-05T19:39:01.037Z,1.60
2022-08-05T19:42:05.783Z,1.55
2022-08-05T19:44:23.303Z,2.10
2022-08-05T19:46:58.894Z,2.10
2022-08-05T19:49:28.683Z,2.00
2022-08-05T19:52:09.326Z,2.10
2022-08-05T19:54:50.553Z,2.25
2022-08-05T19:57:48.984Z,2.10
2022-08-05T20:00:14.682Z,2.30
2022-08-05T20:02:44.238Z,2.72
2022-08-05T20:05:16.756Z,2.20
2022-08-05T20:07:58.899Z,2.38
2022-08-05T20:10:29.048Z,2.05
2022-08-05T20:12:58.625Z,2.67
2022-08-05T20:15:52.253Z,2.88
2022-08-05T20:18:32.852Z,2.70
2022-08-05T20:21:04.432Z,2.70
2022-08-05T20:23:39.653Z,2.42
2022-08-05T20:26:23.441Z,3.10
2022-08-05T20:28:57.006Z,3.17
2022-08-05T20:31:42.894Z,2.57
2022-08-05T20:34:20.175Z,6.43
2022-08-05T20:36:50.014Z,2.80
2022-08-05T20:39:19.704Z,2.85
2022-08-05T20:41:49.453Z,2.08
2022-08-05T20:44:30.621Z,2.33
2022-08-05T20:47:05.173Z,3.15
2022-08-05T20:49:39.661Z,2.42
2022-08-05T20:52:10.787Z,2.78
2022-08-05T20:54:43.398Z,2.30
2022-08-05T20:57:43.281Z,2.65
2022-08-05T21:00:40.325Z,2.40
2022-08-05T21:03:09.150Z,3.75
2022-08-05T21:05:53.465Z,5.00
2022-08-05T21:08:28.053Z,4.60
2022-08-05T21:11:09.315Z,5.38
2022-08-05T21:13:55.852Z,4.20
2022-08-05T21:16:30.026Z,4.45
2022-08-05T21:19:03.562Z,4.75
2022-08-05T21:21:43.702Z,5.07
2022-08-05T21:24:15.709Z,5.03
2022-08-05T21:26:58.497Z,5.40
2022-08-05T21:29:31.568Z,6.15
2022-08-05T21:32:02.845Z,5.38
2022-08-05T21:34:35.605Z,4.88
2022-08-05T21:37:05.402Z,5.00
2022-08-05T21:39:35.022Z,5.07
2022-08-05T21:42:30.757Z,4.30
2022-08-05T21:45:00.369Z,9.30
2022-08-05T21:47:55.604Z,4.25
2022-08-05T21:50:22.352Z,3.53
2022-08-05T21:52:51.979Z,3.30
2022-08-05T21:55:43.040Z,6.20
2022-08-05T21:58:17.137Z,2.78
2022-08-05T22:00:51.035Z,2.50
2022-08-05T22:03:52.273Z,3.03
2022-08-05T22:06:16.576Z,2.45
2022-08-05T22:08:52.920Z,2.60
2022-08-05T22:11:35.266Z,2.90
2022-08-05T22:14:34.695Z,3.00
2022-08-05T22:16:56.907Z,2.95
2022-08-05T22:20:00.615Z,2.95
2022-08-05T22:22:27.912Z,3.28
2022-08-05T22:25:18.067Z,2.97
2022-08-05T22:28:10.577Z,2.60
2022-08-05T22:30:44.250Z,2.47
2022-08-05T22:33:55.348Z,2.38
2022-08-05T22:36:16.348Z,2.75
2022-08-05T22:38:49.435Z,2.72
2022-08-05T22:42:04.316Z,2.50
2022-08-05T22:44:11.823Z,2.40
2022-08-05T22:46:41.942Z,2.78
2022-08-05T22:50:17.317Z,2.35
2022-08-05T22:52:15.531Z,2.38
2022-08-05T22:54:57.836Z,2.40
2022-08-05T22:57:27.413Z,2.20
2022-08-05T23:00:07.994Z,2.08
2022-08-05T23:02:46.621Z,2.10
2022-08-05T23:05:26.351Z,2.10
2022-08-05T23:07:56.571Z,1.92
2022-08-05T23:10:31.861Z,2.10
2022-08-05T23:13:01.841Z,1.90
2022-08-05T23:15:35.273Z,1.85
2022-08-05T23:18:11.735Z,2.10
2022-08-05T23:20:45.659Z,1.80
2022-08-05T23:23:15.280Z,1.90
2022-08-05T23:25:51.408Z,2.13
2022-08-05T23:28:28.994Z,2.05
2022-08-05T23:31:15.808Z,1.90
2022-08-05T23:34:06.208Z,2.00
2022-08-05T23:36:38.722Z,2.00
2022-08-05T23:39:17.544Z,2.40
2022-08-05T23:41:56.481Z,2.05
2022-08-05T23:44:31.054Z,2.20
2022-08-05T23:47:02.469Z,2.15
2022-08-05T23:49:45.626Z,2.10
2022-08-05T23:52:36.205Z,2.30
2022-08-05T23:55:19.829Z,2.10
2022-08-05T23:57:53.895Z,2.40
